Tiempo atmosférico en la estación meteorológica de Haría, Las Palmas (277 m.)



Fecha
DESCASC
Temp. máxima en grados centígrados (hora)
DESCASC
Temp. mínima en grados centígrados (hora)
DESCASC
Temp. media en grados centígrados
DESCASC
Racha de viento máxima en m/sg (hora)
DESCASC
Velocidad máxima media en intervalos de 10 minutos(hora)
DESCASC
Precipitaciones diarias en mm
DESCASC
Precipitaciones de 00:00 a 06:00 en mm
DESCASC
Precipitaciones de 06:00 a 12:00 en mm
DESCASC
Precipitaciones de 12:00 a 18:00 en mm
DESCASC
Precipitaciones de 18:00 a 24:00 en mm
DESCASC
18-04-2019 18.9 (15:10) 14.3 (06:50) 16.6 13.06 (12:10) 8.33 (12:10) 0 0 0 0 0
17-04-2019 20.7 (12:40) 14.8 (07:00) 17.8 14.44 (18:10) 10.83 (18:20) 0.8 0 0 0.8 0
16-04-2019 21.8 (13:40) 13.8 (00:00) 17.8 10.83 (23:40) 7.22 (23:40) 0 0 0 0 0
15-04-2019 20.9 (13:30) 14.7 (00:00) 17.8 13.33 (00:10) 8.61 (00:10) 0 0 0 0 0
14-04-2019 22 (12:10) 14 (00:00) 18 16.67 (21:50) 11.39 (22:00) 0 0 0 0 0
13-04-2019 20.1 (17:10) 13.8 (00:00) 17 13.89 (04:20) 8.61 (04:20) 0 0 0 0 0
12-04-2019 18.5 (14:00) 13.8 (00:00) 16.2 14.72 (15:30) 10.28 (15:40) 0 0 0 0 0
11-04-2019 18.8 (16:00) 14.3 (00:00) 16.5 15.56 (17:00) 10.56 (14:40) 0 0 0 0 0
10-04-2019 17.7 (13:00) 14.1 (00:00) 15.9 16.39 (17:50) 9.72 (17:50) 0 0 0 0 0
09-04-2019 18.3 (14:20) 14.5 (00:00) 16.4 11.67 (16:50) 7.78 (18:20) 0.2 0 0.2 0 0
08-04-2019 20.1 (13:40) 14.1 (00:00) 17.1 11.67 (17:10) 8.06 (17:20) 0.2 0 0.2 0 0
07-04-2019 19.4 (14:00) 13.9 (00:00) 16.6 10.56 (09:30) 7.5 (18:20) 0.4 0 0.4 0 0
06-04-2019 18 (14:50) 12.8 (00:00) 15.4 16.94 (05:50) 10.28 (05:30) 0.6 0 0.6 0 0
05-04-2019 18.4 (14:20) 12.7 (00:00) 15.5 18.33 (12:20) 9.72 (14:50) 4.4 0 0 1.2 3.2
04-04-2019 19.1 (15:10) 13.1 (00:00) 16.1 11.67 (11:30) 7.5 (11:30) 0 0 0 0 0
03-04-2019 19.5 (12:20) 12.5 (00:00) 16 13.61 (16:50) 8.61 (16:50) 0 0 0 0 0
02-04-2019 22.2 (18:30) 12.6 (00:00) 17.4 8.33 (16:20) 6.11 (09:10) 0 0 0 0 0
01-04-2019 19 (11:00) 13.1 (00:00) 16.1 7.78 (11:40) 4.72 (00:30) 0.6 0.6 0 0 0
31-03-2019 19.4 (15:20) 14.8 (00:00) 17.1 12.5 (06:30) 8.33 (16:40) 0 0 0 0 0
30-03-2019 19.2 (13:30) 11 (00:00) 15.1 14.72 (20:50) 10.28 (21:10) 0 0 0 0 0
29-03-2019 19.7 (12:50) 10.6 (00:00) 15.2 8.06 (14:30) 5 (13:10) 0 0 0 0 0
28-03-2019 19.9 (13:20) 12 (00:00) 15.9 10.83 (12:50) 5.83 (16:20) 0 0 0 0 0
27-03-2019 20 (12:30) 12.9 (00:00) 16.4 6.94 (17:50) 4.17 (12:50) 0.2 0 0 0.2 0
26-03-2019 19.6 (11:20) 11.9 (00:00) 15.8 9.17 (11:50) 6.39 (11:50) 0 0 0 0 0
25-03-2019 19.2 (13:40) 13.3 (00:00) 16.3 10 (12:50) 6.94 (07:00) 0 0 0 0 0
24-03-2019 20.7 (14:40) 11.7 (00:00) 16.2 9.72 (13:10) 5.83 (13:20) 0 0 0 0 0
23-03-2019 18.5 (12:50) 13.7 (00:00) 16.1 13.06 (10:00) 8.89 (18:40) 0 0 0 0 0
22-03-2019 18.1 (12:40) 13 (00:00) 15.6 11.39 (17:20) 7.78 (17:30) 0 0 0 0 0
21-03-2019 18.9 (13:00) 13.5 (00:00) 16.2 12.22 (13:30) 7.5 (12:30) 0 0 0 0 0

Gráficas

Temp. máximas Temp. mínimas Temp. medias Precipitaciones Rachas de viento máximas Velocidades máximas media en intervalos de 10 minutos

Datos horarios

Fecha y hora oficial Temperatura (ºC) Velocidad del viento (km/h) Dirección del viento Racha (km/h) Dirección de racha Precipitación (mm) Presión (hPa) Tendencia (hPa) Humedad (%)
2019-04-19 23:00:00 14.7 27 Noroeste 46 Noroeste 0 -- -- 77
2019-04-19 22:00:00 14.7 30 Noroeste 66 Norte 0 -- -- 84
2019-04-19 21:00:00 15.3 28 Noroeste 47 Norte 0 -- -- 78
2019-04-19 20:00:00 15.7 31 Noroeste 47 Noroeste 0 -- -- 76
2019-04-19 19:00:00 16.5 28 Noroeste 46 Noroeste 0 -- -- 74
2019-04-19 18:00:00 17.2 30 Noroeste 45 Noroeste 0 -- -- 70
2019-04-19 17:00:00 17.1 25 Noroeste 44 Noroeste 0 -- -- 70
2019-04-19 16:00:00 18.2 28 Noroeste 45 Norte 0 -- -- 61
2019-04-19 15:00:00 19.3 27 Noroeste 44 Noroeste 0 -- -- 54
2019-04-19 14:00:00 18 24 Noroeste 40 Noroeste 0 -- -- 57
2019-04-19 13:00:00 18.5 22 Norte 44 Norte 0 -- -- 54
2019-04-19 12:00:00 18.1 26 Norte 45 Norte 0 -- -- 64
2019-04-19 11:00:00 17.9 28 Norte 56 Noroeste 0 -- -- 66
2019-04-19 10:00:00 15.8 24 Noroeste 44 Noroeste 0 -- -- 77
2019-04-19 09:00:00 15.3 23 Noroeste 44 Norte 0 -- -- 80
2019-04-19 08:00:00 14.6 23 Noroeste 39 Noroeste 0 -- -- 82
2019-04-19 07:00:00 14.4 23 Norte 44 Noroeste 0 -- -- 78
2019-04-19 06:00:00 14.4 23 Noroeste 41 Noroeste 0 -- -- 78
2019-04-19 05:00:00 14.2 22 Norte 38 Noroeste 0 -- -- 76
2019-04-19 04:00:00 14.2 21 Noroeste 35 Norte 0 -- -- 77
2019-04-19 03:00:00 14.2 19 Norte 44 Noroeste 0 -- -- 76
2019-04-19 02:00:00 14.7 23 Noroeste 38 Norte 0 -- -- 77
2019-04-19 01:00:00 14.4 20 Noroeste 41 Norte 0 -- -- 73
2019-04-19 00:00:00 14.7 25 Noroeste 42 Noroeste 0 -- -- 73
2019-04-18 23:00:00 14.5 20 Noroeste 38 Noroeste 0 -- -- 73
2019-04-18 22:00:00 14.6 24 Noroeste 39 Noroeste 0 -- -- 71
2019-04-18 21:00:00 15 21 Noroeste 40 Norte 0 -- -- 73
2019-04-18 20:00:00 15.3 28 Noroeste 45 Noroeste 0 -- -- 70
2019-04-18 19:00:00 15.8 23 Norte 37 Norte 0 -- -- 68
2019-04-18 18:00:00 16.1 24 Noroeste 41 Noroeste 0 -- -- 69
2019-04-18 17:00:00 17.3 19 Noroeste 43 Noroeste 0 -- -- 64
2019-04-18 16:00:00 17.4 28 Norte 44 Noroeste 0 -- -- 58
2019-04-18 15:00:00 18.8 25 Noroeste 42 Norte 0 -- -- 52
2019-04-18 14:00:00 17.1 24 Noroeste 42 Noroeste 0 -- -- 67
2019-04-18 13:00:00 17.9 22 Noroeste 47 Norte 0 -- -- 63
2019-04-18 12:00:00 18.4 26 Norte 45 Norte 0 -- -- 56
2019-04-18 11:00:00 17.8 26 Noroeste 42 Noroeste 0 -- -- 63
2019-04-18 10:00:00 17.1 24 Noroeste 38 Noroeste 0 -- -- 67
2019-04-18 09:00:00 15.7 20 Noroeste 29 Noroeste 0 -- -- 75
2019-04-18 08:00:00 14.6 18 Noroeste 29 Norte 0 -- -- 82
2019-04-18 07:00:00 14.3 16 Noroeste 28 Noroeste 0 -- -- 83
2019-04-18 06:00:00 14.6 19 Noroeste 33 Noroeste 0 -- -- 84
2019-04-18 05:00:00 14.9 21 Noroeste 32 Noroeste 0 -- -- 84
2019-04-18 04:00:00 14.8 17 Noroeste 31 Noroeste 0 -- -- 82
2019-04-18 03:00:00 15 17 Noroeste 33 Noroeste 0 -- -- 81
2019-04-18 02:00:00 15.2 20 Noroeste 36 Noroeste 0 -- -- 82
2019-04-18 01:00:00 15.8 21 Noroeste 35 Noroeste 0 -- -- 83
2019-04-18 00:00:00 15.9 15 Noroeste 34 Noroeste 0 -- -- 82
2019-04-17 23:00:00 16 15 Noroeste 31 Noroeste 0 -- -- 83
2019-04-17 22:00:00 16 18 Noroeste 31 Noroeste 0 -- -- 83
2019-04-17 21:00:00 16 20 Noroeste 32 Noroeste 0 -- -- 82
2019-04-17 20:00:00 16.4 19 Noroeste 41 Noroeste 0 -- -- 81
2019-04-17 19:00:00 16.8 28 Noroeste 52 Noroeste 0 -- -- 78
2019-04-17 18:00:00 18.1 33 Noroeste 50 Noroeste 0 -- -- 74
2019-04-17 17:00:00 18.8 30 Noroeste 41 Noroeste 0.2 -- -- 74
2019-04-17 16:00:00 19.7 29 Noroeste 42 Noroeste 0 -- -- 74
2019-04-17 15:00:00 18.1 22 Noroeste 34 Noroeste 0.6 -- -- 94
2019-04-17 14:00:00 18.6 23 Oeste 46 Oeste 0 -- -- 77
2019-04-17 13:00:00 20.6 19 Oeste 32 Oeste 0 -- -- 63
2019-04-17 12:00:00 19.7 17 Oeste 27 Oeste 0 -- -- 67
2019-04-17 11:00:00 17.6 14 Oeste 28 Oeste 0 -- -- 79
2019-04-17 10:00:00 17.1 15 Oeste 24 Oeste 0 -- -- 78
2019-04-17 09:00:00 16.9 10 Oeste 18 Oeste 0 -- -- 78
2019-04-17 08:00:00 15.5 5 Noroeste 16 Noroeste 0 -- -- 87
2019-04-17 07:00:00 14.8 3 Sudoeste 19 Sudoeste 0 -- -- 89
2019-04-17 06:00:00 15.5 4 Noroeste 19 Oeste 0 -- -- 92
2019-04-17 05:00:00 15.4 6 Noroeste 22 Noroeste 0 -- -- 92
2019-04-17 04:00:00 15.2 2 Oeste 19 Oeste 0 -- -- 91
2019-04-17 03:00:00 15.6 9 Oeste 30 Noroeste 0 -- -- 92
2019-04-17 02:00:00 15.9 25 Noroeste 40 Noroeste 0 -- -- 91
2019-04-17 01:00:00 15.9 13 Oeste 33 Oeste 0 -- -- 88
2019-04-17 00:00:00 15.9 23 Oeste 39 Oeste 0 -- -- 89
2019-04-16 23:00:00 16.2 24 Noroeste 34 Oeste 0 -- -- 81
2019-04-16 22:00:00 15.6 6 Noroeste 17 Noroeste 0 -- -- 87
2019-04-16 21:00:00 16.1 11 Noroeste 24 Oeste 0 -- -- 87
2019-04-16 20:00:00 17 18 Oeste 27 Oeste 0 -- -- 81
2019-04-16 19:00:00 18.9 17 Oeste 22 Oeste 0 -- -- 74
2019-04-16 18:00:00 20.3 12 Oeste 21 Sudoeste 0 -- -- 70
2019-04-16 17:00:00 20.4 6 Sur 22 Este 0 -- -- 69
2019-04-16 16:00:00 20.5 11 Este 21 Sudeste 0 -- -- 68
2019-04-16 15:00:00 20.3 13 Este 25 Sudeste 0 -- -- 68
2019-04-16 14:00:00 20.8 16 Sudeste 28 Este 0 -- -- 66
2019-04-16 13:00:00 21.5 16 Sudeste 27 Este 0 -- -- 64
2019-04-16 12:00:00 20.2 13 Este 27 Nordeste 0 -- -- 66
2019-04-16 11:00:00 19 10 Este 24 Este 0 -- -- 71
2019-04-16 10:00:00 17.9 8 Nordeste 15 Nordeste 0 -- -- 86
2019-04-16 09:00:00 16 5 Nordeste 11 Nordeste 0 -- -- 96
2019-04-16 08:00:00 14.6 3 Norte 9 Nordeste 0 -- -- 97
2019-04-16 07:00:00 13.8 4 Noroeste 11 Norte 0 -- -- 96
2019-04-16 06:00:00 14.5 4 Nordeste 8 Nordeste 0 -- -- 96
2019-04-16 05:00:00 14.5 3 Nordeste 9 Norte 0 -- -- 95
2019-04-16 04:00:00 14.7 4 Nordeste 9 Nordeste 0 -- -- 95
2019-04-16 03:00:00 14.7 3 Norte 13 Este 0 -- -- 95
2019-04-16 02:00:00 15.4 9 Este 15 Este 0 -- -- 94
2019-04-16 01:00:00 15.5 8 Este 20 Este 0 -- -- 94
2019-04-16 00:00:00 15.8 13 Nordeste 24 Nordeste 0 -- -- 93
2019-04-15 23:00:00 15.9 12 Nordeste 22 Nordeste 0 -- -- 91
2019-04-15 22:00:00 16 11 Nordeste 21 Norte 0 -- -- 90
2019-04-15 21:00:00 16 10 Norte 19 Norte 0 -- -- 87
2019-04-15 20:00:00 17.1 13 Norte 23 Norte 0 -- -- 78
2019-04-15 19:00:00 18.6 15 Norte 27 Norte 0 -- -- 71
2019-04-15 18:00:00 19.4 15 Nordeste 27 Norte 0 -- -- 71
2019-04-15 17:00:00 20 14 Nordeste 30 Nordeste 0 -- -- 69
2019-04-15 16:00:00 20 18 Nordeste 28 Nordeste 0 -- -- 65
2019-04-15 15:00:00 20.6 15 Nordeste 26 Nordeste 0 -- -- 61
2019-04-15 14:00:00 20.8 14 Nordeste 27 Nordeste 0 -- -- 61
2019-04-15 13:00:00 20.5 17 Nordeste 33 Norte 0 -- -- 62
2019-04-15 12:00:00 20 20 Nordeste 34 Norte 0 -- -- 62
2019-04-15 11:00:00 19.3 20 Norte 28 Norte 0 -- -- 67
2019-04-15 10:00:00 17.2 15 Norte 26 Noroeste 0 -- -- 75
2019-04-15 09:00:00 16.3 14 Noroeste 22 Norte 0 -- -- 84
2019-04-15 08:00:00 15.1 14 Oeste 30 Noroeste 0 -- -- 86
2019-04-15 07:00:00 14.8 20 Noroeste 32 Noroeste 0 -- -- 87
2019-04-15 06:00:00 14.7 19 Oeste 33 Oeste 0 -- -- 85
2019-04-15 05:00:00 14.9 25 Noroeste 38 Oeste 0 -- -- 84
2019-04-15 04:00:00 15.2 25 Noroeste 44 Oeste 0 -- -- 87
2019-04-15 03:00:00 15.3 30 Noroeste 44 Oeste 0 -- -- 90
2019-04-15 02:00:00 15.1 19 Noroeste 37 Oeste 0 -- -- 89
2019-04-15 01:00:00 15.2 28 Oeste 48 Oeste 0 -- -- 91
2019-04-15 00:00:00 15.4 34 Oeste 51 Oeste 0 -- -- 91
2019-04-14 23:00:00 15.4 27 Oeste 55 Oeste 0 -- -- 89
2019-04-14 22:00:00 15.7 41 Oeste 60 Oeste 0 -- -- 91
2019-04-14 21:00:00 15.6 14 Oeste 48 Oeste 0 -- -- 90
2019-04-14 20:00:00 16.1 35 Oeste 51 Oeste 0 -- -- 87
2019-04-14 19:00:00 17.3 24 Oeste 46 Oeste 0 -- -- 82
2019-04-14 18:00:00 18.2 29 Oeste 48 Noroeste 0 -- -- 79
2019-04-14 17:00:00 18.9 30 Noroeste 42 Noroeste 0 -- -- 76
2019-04-14 16:00:00 19.7 26 Oeste 39 Oeste 0 -- -- 75
2019-04-14 15:00:00 21.6 13 Oeste 26 Este 0 -- -- 67
2019-04-14 14:00:00 21.7 10 Este 17 Este 0 -- -- 65
2019-04-14 13:00:00 21.2 9 Sudeste 20 Este 0 -- -- 67
2019-04-14 12:00:00 21.5 9 Sudeste 19 Este 0 -- -- 65
2019-04-14 11:00:00 19.6 6 Nordeste 15 Nordeste 0 -- -- 72
2019-04-14 10:00:00 17.5 7 Nordeste 13 Norte 0 -- -- 88
2019-04-14 09:00:00 15.7 10 Norte 17 Norte 0 -- -- 95
2019-04-14 08:00:00 14.3 11 Noroeste 21 Norte 0 -- -- 96
2019-04-14 07:00:00 14 11 Norte 20 Norte 0 -- -- 95
2019-04-14 06:00:00 14.1 12 Norte 23 Norte 0 -- -- 95
2019-04-14 05:00:00 14.1 15 Norte 24 Norte 0 -- -- 95
2019-04-14 04:00:00 14.1 11 Norte 18 Norte 0 -- -- 96
2019-04-14 03:00:00 14.1 6 Norte 17 Nordeste 0 -- -- 95
2019-04-14 02:00:00 14.5 8 Norte 19 Nordeste 0 -- -- 95
2019-04-14 01:00:00 14.6 9 Norte 24 Norte 0 -- -- 94
2019-04-14 00:00:00 14.7 7 Norte 28 Norte 0 -- -- 92
2019-04-13 23:00:00 14.8 14 Norte 39 Norte 0 -- -- 90
2019-04-13 22:00:00 15 24 Norte 39 Norte 0 -- -- 85
2019-04-13 21:00:00 15.2 19 Norte 40 Norte 0 -- -- 79
2019-04-13 20:00:00 16 19 Norte 41 Noroeste 0 -- -- 75
2019-04-13 19:00:00 17 29 Noroeste 46 Noroeste 0 -- -- 74
2019-04-13 18:00:00 18.4 26 Noroeste 42 Noroeste 0 -- -- 68
2019-04-13 17:00:00 19.5 28 Norte 40 Norte 0 -- -- 50
2019-04-13 16:00:00 19.7 23 Norte 41 Norte 0 -- -- 58
2019-04-13 15:00:00 19.6 27 Norte 43 Norte 0 -- -- 59
2019-04-13 14:00:00 19.8 26 Norte 43 Norte 0 -- -- 56
2019-04-13 13:00:00 18.9 24 Norte 42 Norte 0 -- -- 68
2019-04-13 12:00:00 18.4 24 Norte 41 Norte 0 -- -- 68
2019-04-13 11:00:00 17.3 29 Norte 44 Norte 0 -- -- 74
2019-04-13 10:00:00 16.6 26 Norte 44 Nordeste 0 -- -- 77
2019-04-13 09:00:00 15.4 24 Norte 39 Norte 0 -- -- 83
2019-04-13 08:00:00 13.9 14 Norte 28 Nordeste 0 -- -- 87
2019-04-13 07:00:00 14 17 Norte 33 Norte 0 -- -- 86
2019-04-13 06:00:00 13.9 21 Norte 42 Norte 0 -- -- 85
2019-04-13 05:00:00 14 28 Norte 50 Norte 0 -- -- 82
2019-04-13 04:00:00 14.1 28 Norte 46 Noroeste 0 -- -- 81
2019-04-13 03:00:00 14.1 19 Norte 40 Norte 0 -- -- 80
2019-04-13 02:00:00 14.3 23 Norte 43 Noroeste 0 -- -- 78
2019-04-13 01:00:00 14.4 22 Norte 38 Norte 0 -- -- 78
2019-04-13 00:00:00 14.5 22 Norte 42 Norte 0 -- -- 78
2019-04-12 23:00:00 14.6 23 Norte 41 Norte 0 -- -- 77
2019-04-12 22:00:00 14.7 23 Norte 44 Norte 0 -- -- 77
2019-04-12 21:00:00 14.7 18 Noroeste 40 Norte 0 -- -- 77
2019-04-12 20:00:00 15.3 19 Norte 38 Noroeste 0 -- -- 75
2019-04-12 19:00:00 16.3 21 Norte 42 Nordeste 0 -- -- 69
2019-04-12 18:00:00 17.1 30 Norte 45 Norte 0 -- -- 70
2019-04-12 17:00:00 18.2 27 Norte 47 Norte 0 -- -- 63
2019-04-12 16:00:00 17.9 31 Norte 53 Norte 0 -- -- 63
2019-04-12 15:00:00 18.3 31 Norte 48 Norte 0 -- -- 60
2019-04-12 14:00:00 18.5 28 Norte 45 Nordeste 0 -- -- 62
2019-04-12 13:00:00 17.7 30 Norte 43 Norte 0 -- -- 61
2019-04-12 12:00:00 17.9 24 Norte 42 Norte 0 -- -- 59
2019-04-12 11:00:00 16.2 30 Norte 43 Norte 0 -- -- 69
2019-04-12 10:00:00 15.7 22 Norte 40 Norte 0 -- -- 67
2019-04-12 09:00:00 15 24 Norte 41 Norte 0 -- -- 72
2019-04-12 08:00:00 14.5 19 Norte 35 Norte 0 -- -- 74
2019-04-12 07:00:00 14.4 21 Norte 42 Noroeste 0 -- -- 75
2019-04-12 06:00:00 14.1 21 Norte 45 Norte 0 -- -- 73
2019-04-12 05:00:00 14.4 26 Norte 40 Norte 0 -- -- 76
2019-04-12 04:00:00 13.9 21 Norte 44 Norte 0 -- -- 74
2019-04-12 03:00:00 14.2 28 Norte 44 Norte 0 -- -- 73
2019-04-12 02:00:00 14.3 26 Norte 52 Norte 0 -- -- 73
2019-04-12 01:00:00 14.3 29 Norte 48 Noroeste 0 -- -- 71
2019-04-12 00:00:00 14.5 26 Norte 46 Norte 0 -- -- 73
2019-04-11 23:00:00 14.5 25 Norte 49 Norte 0 -- -- 72
2019-04-11 22:00:00 14.7 20 Norte 45 Norte 0 -- -- 74
2019-04-11 21:00:00 14.7 23 Norte 46 Norte 0 -- -- 75
2019-04-11 20:00:00 14.9 29 Norte 44 Norte 0 -- -- 72
2019-04-11 19:00:00 16.1 26 Norte 48 Norte 0 -- -- 69
2019-04-11 18:00:00 16.9 30 Norte 48 Norte 0 -- -- 65
2019-04-11 17:00:00 17.1 30 Norte 56 Noroeste 0 -- -- 67
2019-04-11 16:00:00 18.8 29 Norte 50 Norte 0 -- -- 58
2019-04-11 15:00:00 18.3 37 Norte 53 Nordeste 0 -- -- 59
2019-04-11 14:00:00 18.3 28 Norte 50 Norte 0 -- -- 61
2019-04-11 13:00:00 17.8 33 Norte 49 Norte 0 -- -- 61
2019-04-11 12:00:00 17.4 27 Norte 49 Nordeste 0 -- -- 64
2019-04-11 11:00:00 15.9 30 Norte 45 Norte 0 -- -- 71
2019-04-11 10:00:00 15.8 28 Norte 45 Norte 0 -- -- 71
2019-04-11 09:00:00 15.5 24 Norte 40 Norte 0 -- -- 69
2019-04-11 08:00:00 14.8 22 Norte 42 Norte 0 -- -- 74
2019-04-11 07:00:00 14.7 30 Norte 45 Norte 0 -- -- 74
2019-04-11 06:00:00 14.7 24 Norte 41 Norte 0 -- -- 76
2019-04-11 05:00:00 14.4 23 Norte 37 Norte 0 -- -- 76
2019-04-11 04:00:00 14.6 20 Norte 40 Norte 0 -- -- 76
2019-04-11 03:00:00 14.4 24 Norte 41 Norte 0 -- -- 76
2019-04-11 02:00:00 14.5 25 Norte 45 Norte 0 -- -- 77
2019-04-11 01:00:00 14.3 21 Norte 50 Norte 0 -- -- 76
2019-04-11 00:00:00 14.7 30 Norte 50 Norte 0 -- -- 74
2019-04-10 23:00:00 14.8 28 Norte 45 Norte 0 -- -- 75
2019-04-10 22:00:00 14.6 26 Norte 48 Norte 0 -- -- 74
2019-04-10 21:00:00 14.8 29 Norte 57 Norte 0 -- -- 73
2019-04-10 20:00:00 15.1 32 Norte 54 Norte 0 -- -- 74
2019-04-10 19:00:00 16.3 26 Norte 46 Norte 0 -- -- 68
2019-04-10 18:00:00 17.1 32 Norte 59 Norte 0 -- -- 63
2019-04-10 17:00:00 17.1 31 Noroeste 53 Noroeste 0 -- -- 68
2019-04-10 16:00:00 17.7 26 Norte 49 Norte 0 -- -- 59
2019-04-10 15:00:00 16.6 32 Norte 46 Norte 0 -- -- 67
2019-04-10 14:00:00 17.5 27 Norte 45 Norte 0 -- -- 66
2019-04-10 13:00:00 17.7 19 Norte 46 Noroeste 0 -- -- 69
2019-04-10 12:00:00 16.3 24 Norte 43 Norte 0 -- -- 72
2019-04-10 11:00:00 17.2 27 Norte 49 Norte 0 -- -- 60
2019-04-10 10:00:00 15.8 21 Norte 40 Norte 0 -- -- 70
2019-04-10 09:00:00 15 19 Norte 40 Norte 0 -- -- 72
2019-04-10 08:00:00 14.6 27 Norte 45 Norte 0 -- -- 66
2019-04-10 07:00:00 14.4 26 Norte 41 Norte 0 -- -- 70
2019-04-10 06:00:00 14.2 24 Norte 40 Norte 0 -- -- 70
2019-04-10 05:00:00 14.2 26 Norte 42 Norte 0 -- -- 65
2019-04-10 04:00:00 14.3 26 Norte 41 Norte 0 -- -- 67
2019-04-10 03:00:00 14.4 25 Norte 42 Norte 0 -- -- 67
2019-04-10 02:00:00 14.5 22 Norte 42 Norte 0 -- -- 70
2019-04-10 01:00:00 14.8 24 Norte 42 Norte 0 -- -- 68
2019-04-10 00:00:00 14.9 18 Norte 37 Norte 0 -- -- 73
2019-04-09 23:00:00 14.6 20 Norte 36 Norte 0 -- -- 71
2019-04-09 22:00:00 14.7 20 Norte 32 Norte 0 -- -- 72
2019-04-09 21:00:00 15 19 Norte 34 Norte 0 -- -- 71
2019-04-09 20:00:00 15.3 20 Norte 34 Norte 0 -- -- 69
2019-04-09 19:00:00 16 24 Norte 38 Norte 0 -- -- 69
2019-04-09 18:00:00 17 23 Norte 40 Norte 0 -- -- 65
2019-04-09 17:00:00 16.9 25 Norte 42 Norte 0 -- -- 69
2019-04-09 16:00:00 17.5 27 Norte 40 Norte 0 -- -- 71
2019-04-09 15:00:00 17.6 26 Norte 39 Norte 0 -- -- 69
2019-04-09 14:00:00 17.5 26 Norte 40 Norte 0 -- -- 73
2019-04-09 13:00:00 17.6 27 Norte 39 Norte 0 -- -- 72
2019-04-09 12:00:00 17.4 23 Norte 35 Norte 0 -- -- 77
2019-04-09 11:00:00 17.3 22 Norte 31 Norte 0 -- -- 76
2019-04-09 10:00:00 17.2 17 Norte 29 Norte 0 -- -- 73
2019-04-09 09:00:00 16.1 17 Norte 33 Norte 0 -- -- 77
2019-04-09 08:00:00 14.9 15 Norte 27 Norte 0.2 -- -- 89
2019-04-09 07:00:00 15.4 13 Norte 24 Noroeste 0 -- -- 88
2019-04-09 06:00:00 15.5 12 Norte 24 Norte 0 -- -- 87
2019-04-09 05:00:00 15.2 14 Norte 24 Norte 0 -- -- 88
2019-04-09 04:00:00 14.9 14 Noroeste 23 Noroeste 0 -- -- 86
2019-04-09 03:00:00 14.7 14 Noroeste 27 Noroeste 0 -- -- 87
2019-04-09 02:00:00 14.6 15 Noroeste 25 Noroeste 0 -- -- 85
2019-04-09 01:00:00 14.5 14 Noroeste 24 Norte 0 -- -- 83
2019-04-09 00:00:00 14.6 17 Noroeste 26 Noroeste 0 -- -- 78
2019-04-08 23:00:00 14.8 21 Noroeste 30 Noroeste 0 -- -- 75
2019-04-08 22:00:00 14.8 21 Noroeste 29 Noroeste 0 -- -- 71
2019-04-08 21:00:00 15 18 Noroeste 32 Noroeste 0 -- -- 67
2019-04-08 20:00:00 15.9 18 Noroeste 35 Noroeste 0 -- -- 63
2019-04-08 19:00:00 17.3 22 Noroeste 36 Norte 0 -- -- 59
2019-04-08 18:00:00 18.2 23 Noroeste 42 Noroeste 0 -- -- 55
2019-04-08 17:00:00 18.7 28 Noroeste 42 Noroeste 0 -- -- 56
2019-04-08 16:00:00 19.1 23 Noroeste 38 Noroeste 0 -- -- 52
2019-04-08 15:00:00 18.5 27 Noroeste 38 Noroeste 0 -- -- 56
2019-04-08 14:00:00 19.2 20 Norte 33 Noroeste 0 -- -- 58
2019-04-08 13:00:00 18.7 20 Noroeste 32 Noroeste 0 -- -- 60
2019-04-08 12:00:00 16.8 14 Noroeste 27 Noroeste 0 -- -- 74
2019-04-08 11:00:00 16.6 13 Noroeste 27 Noroeste 0 -- -- 74
2019-04-08 10:00:00 16.8 13 Noroeste 20 Noroeste 0 -- -- 78
2019-04-08 09:00:00 15.1 11 Noroeste 21 Norte 0 -- -- 88
2019-04-08 08:00:00 14.5 12 Noroeste 22 Noroeste 0 -- -- 91
2019-04-08 07:00:00 14.5 16 Noroeste 27 Noroeste 0.2 -- -- 91
2019-04-08 06:00:00 14.6 13 Noroeste 24 Noroeste 0 -- -- 90
2019-04-08 05:00:00 14.1 13 Noroeste 21 Noroeste 0 -- -- 90
2019-04-08 04:00:00 14.3 13 Noroeste 22 Norte 0 -- -- 89
2019-04-08 03:00:00 14.4 13 Noroeste 26 Noroeste 0 -- -- 88
2019-04-08 02:00:00 14.7 18 Noroeste 28 Noroeste 0 -- -- 86
2019-04-08 01:00:00 14.8 13 Noroeste 25 Noroeste 0 -- -- 86
2019-04-08 00:00:00 15.1 13 Noroeste 26 Norte 0 -- -- 86
2019-04-07 23:00:00 15.1 14 Noroeste 28 Noroeste 0 -- -- 85
2019-04-07 22:00:00 15.3 19 Noroeste 32 Noroeste 0 -- -- 85
2019-04-07 21:00:00 15.6 20 Noroeste 35 Noroeste 0 -- -- 83
2019-04-07 20:00:00 16.2 24 Noroeste 33 Noroeste 0 -- -- 78
2019-04-07 19:00:00 17 19 Noroeste 36 Noroeste 0 -- -- 76
2019-04-07 18:00:00 17.6 23 Noroeste 35 Noroeste 0 -- -- 72
2019-04-07 17:00:00 18.1 23 Noroeste 35 Noroeste 0 -- -- 72
2019-04-07 16:00:00 18.9 22 Noroeste 36 Oeste 0 -- -- 70
2019-04-07 15:00:00 18.9 19 Noroeste 37 Noroeste 0 -- -- 69
2019-04-07 14:00:00 19.4 21 Noroeste 32 Noroeste 0 -- -- 66
2019-04-07 13:00:00 17.7 19 Noroeste 32 Noroeste 0 -- -- 74
2019-04-07 12:00:00 17.6 20 Noroeste 32 Noroeste 0 -- -- 75
2019-04-07 11:00:00 16.5 19 Noroeste 38 Noroeste 0 -- -- 80
2019-04-07 10:00:00 16.5 23 Noroeste 38 Noroeste 0 -- -- 84
2019-04-07 09:00:00 15.5 22 Noroeste 36 Noroeste 0.4 -- -- 87
2019-04-07 08:00:00 15.1 23 Noroeste 36 Noroeste 0 -- -- 85
2019-04-07 07:00:00 14.7 22 Noroeste 37 Noroeste 0 -- -- 85
2019-04-07 06:00:00 14.3 22 Noroeste 34 Noroeste 0 -- -- 83
2019-04-07 05:00:00 14.2 22 Noroeste 34 Noroeste 0 -- -- 82
2019-04-07 04:00:00 14.2 22 Noroeste 34 Noroeste 0 -- -- 82
2019-04-07 03:00:00 14.3 21 Noroeste 30 Noroeste 0 -- -- 80
2019-04-07 02:00:00 14.2 19 Noroeste 26 Noroeste 0 -- -- 81
2019-04-07 01:00:00 14.5 17 Noroeste 29 Noroeste 0 -- -- 77
2019-04-07 00:00:00 13.9 17 Noroeste 27 Noroeste 0 -- -- 76
2019-04-06 23:00:00 14.1 17 Noroeste 31 Noroeste 0 -- -- 73
2019-04-06 22:00:00 14.3 19 Noroeste 34 Noroeste 0 -- -- 72
2019-04-06 21:00:00 14.5 20 Noroeste 35 Noroeste 0 -- -- 71
2019-04-06 20:00:00 15 21 Noroeste 45 Noroeste 0 -- -- 69
2019-04-06 19:00:00 15.6 30 Noroeste 50 Noroeste 0 -- -- 68
2019-04-06 18:00:00 15.8 30 Noroeste 46 Noroeste 0 -- -- 65
2019-04-06 17:00:00 16.8 29 Noroeste 46 Noroeste 0 -- -- 62
2019-04-06 16:00:00 17.1 24 Noroeste 48 Noroeste 0 -- -- 64
2019-04-06 15:00:00 17.5 30 Noroeste 51 Noroeste 0 -- -- 63
2019-04-06 14:00:00 17.3 24 Noroeste 45 Noroeste 0 -- -- 66
2019-04-06 13:00:00 16.3 28 Noroeste 50 Noroeste 0 -- -- 68
2019-04-06 12:00:00 15.3 27 Noroeste 44 Noroeste 0.2 -- -- 73
2019-04-06 11:00:00 13.6 26 Noroeste 57 Noroeste 0.4 -- -- 78
2019-04-06 10:00:00 13.9 24 Noroeste 45 Noroeste 0 -- -- 75
2019-04-06 09:00:00 14.2 24 Noroeste 51 Noroeste 0 -- -- 73
2019-04-06 08:00:00 12.9 31 Noroeste 50 Norte 0 -- -- 70
2019-04-06 07:00:00 13.1 31 Noroeste 49 Noroeste 0 -- -- 74
2019-04-06 06:00:00 13.2 31 Noroeste 61 Noroeste 0 -- -- 73
2019-04-06 05:00:00 13.3 32 Noroeste 58 Noroeste 0 -- -- 71
2019-04-06 04:00:00 13.1 25 Noroeste 49 Noroeste 0 -- -- 77
2019-04-06 03:00:00 13.1 25 Noroeste 47 Noroeste 0 -- -- 77
2019-04-06 02:00:00 13.1 26 Noroeste 47 Noroeste 0 -- -- 78
2019-04-06 01:00:00 13.3 23 Noroeste 40 Noroeste 0 -- -- 80
2019-04-06 00:00:00 13.3 24 Noroeste 41 Noroeste 0.6 -- -- 85
2019-04-05 23:00:00 13.4 21 Noroeste 38 Noroeste 0.6 -- -- 86
2019-04-05 22:00:00 13.4 23 Noroeste 39 Noroeste 0 -- -- 85
2019-04-05 21:00:00 12.7 28 Noroeste 51 Noroeste 2 -- -- 87
2019-04-05 20:00:00 15.1 26 Noroeste 46 Noroeste 0 -- -- 74
2019-04-05 19:00:00 16 27 Noroeste 56 Noroeste 0 -- -- 68
2019-04-05 18:00:00 15.1 33 Noroeste 49 Noroeste 0.2 -- -- 77
2019-04-05 17:00:00 16 26 Noroeste 46 Noroeste 0 -- -- 75
2019-04-05 16:00:00 17 26 Noroeste 53 Noroeste 0 -- -- 69
2019-04-05 15:00:00 16.7 24 Noroeste 54 Noroeste 0 -- -- 77
2019-04-05 14:00:00 17.9 30 Noroeste 62 Norte 0 -- -- 70
2019-04-05 13:00:00 16.5 22 Noroeste 66 Noroeste 1 -- -- 78
2019-04-05 12:00:00 17.3 19 Noroeste 44 Noroeste 0 -- -- 71
2019-04-05 11:00:00 17 27 Noroeste 44 Noroeste 0 -- -- 69
2019-04-05 10:00:00 16.1 29 Noroeste 48 Noroeste 0 -- -- 72
2019-04-05 09:00:00 15.6 21 Noroeste 41 Noroeste 0 -- -- 73
2019-04-05 08:00:00 14.3 21 Noroeste 37 Oeste 0 -- -- 76
2019-04-05 07:00:00 13.9 15 Noroeste 34 Noroeste 0 -- -- 76
2019-04-05 06:00:00 13.9 18 Noroeste 36 Noroeste 0 -- -- 74
2019-04-05 05:00:00 14.2 21 Noroeste 33 Noroeste 0 -- -- 76
2019-04-05 04:00:00 14.3 16 Noroeste 32 Noroeste 0 -- -- 76
2019-04-05 03:00:00 14.2 16 Noroeste 31 Noroeste 0 -- -- 79
2019-04-05 02:00:00 14.4 19 Noroeste 35 Noroeste 0 -- -- 76
2019-04-05 01:00:00 14.3 14 Noroeste 32 Norte 0 -- -- 79
2019-04-05 00:00:00 14 18 Noroeste 40 Noroeste 0 -- -- 80
2019-04-04 23:00:00 14.2 19 Noroeste 34 Noroeste 0 -- -- 78
2019-04-04 22:00:00 14.4 24 Noroeste 33 Noroeste 0 -- -- 80
2019-04-04 21:00:00 14.7 23 Noroeste 36 Noroeste 0 -- -- 78
2019-04-04 20:00:00 15.2 24 Noroeste 39 Noroeste 0 -- -- 75
2019-04-04 19:00:00 15.5 15 Noroeste 31 Noroeste 0 -- -- 76
2019-04-04 18:00:00 17.3 18 Noroeste 33 Noroeste 0 -- -- 66
2019-04-04 17:00:00 17 21 Noroeste 35 Noroeste 0 -- -- 66
2019-04-04 16:00:00 18.1 19 Noroeste 33 Noroeste 0 -- -- 63
2019-04-04 15:00:00 19 21 Noroeste 35 Oeste 0 -- -- 60
2019-04-04 14:00:00 16.9 20 Noroeste 35 Noroeste 0 -- -- 71
2019-04-04 13:00:00 18 21 Noroeste 36 Noroeste 0 -- -- 65
2019-04-04 12:00:00 17.2 19 Noroeste 42 Noroeste 0 -- -- 70
2019-04-04 11:00:00 16.4 27 Noroeste 39 Oeste 0 -- -- 72
2019-04-04 10:00:00 16 19 Noroeste 32 Noroeste 0 -- -- 75
2019-04-04 09:00:00 14.5 13 Noroeste 28 Noroeste 0 -- -- 87
2019-04-04 08:00:00 13.2 20 Noroeste 36 Noroeste 0 -- -- 89
2019-04-04 07:00:00 14 17 Noroeste 26 Noroeste 0 -- -- 87
2019-04-04 06:00:00 14.4 11 Noroeste 22 Oeste 0 -- -- 90
2019-04-04 05:00:00 14.2 14 Oeste 23 Oeste 0 -- -- 90
2019-04-04 04:00:00 14.4 15 Oeste 27 Oeste 0 -- -- 88
2019-04-04 03:00:00 14.2 15 Oeste 23 Oeste 0 -- -- 84
2019-04-04 02:00:00 14.4 15 Oeste 24 Oeste 0 -- -- 83
2019-04-04 01:00:00 13.9 15 Oeste 19 Oeste 0 -- -- 85
2019-04-04 00:00:00 13.1 8 Oeste 11 Oeste 0 -- -- 90
2019-04-03 23:00:00 13.3 6 Noroeste 7 Noroeste 0 -- -- 86
2019-04-03 22:00:00 14.5 5 Noroeste 18 Noroeste 0 -- -- 83
2019-04-03 21:00:00 15.6 14 Noroeste 31 Noroeste 0 -- -- 81
2019-04-03 20:00:00 16.2 19 Noroeste 32 Noroeste 0 -- -- 82
2019-04-03 19:00:00 16.5 19 Noroeste 36 Noroeste 0 -- -- 79
2019-04-03 18:00:00 17.7 23 Noroeste 42 Oeste 0 -- -- 80
2019-04-03 17:00:00 16.8 29 Noroeste 49 Oeste 0 -- -- 83
2019-04-03 16:00:00 17.7 12 Oeste 35 Oeste 0 -- -- 80
2019-04-03 15:00:00 18.7 17 Noroeste 43 Noroeste 0 -- -- 75
2019-04-03 14:00:00 17.7 19 Oeste 39 Oeste 0 -- -- 81
2019-04-03 13:00:00 18 9 Oeste 30 Oeste 0 -- -- 76
2019-04-03 12:00:00 18.7 20 Oeste 31 Oeste 0 -- -- 76
2019-04-03 11:00:00 18 18 Oeste 36 Oeste 0 -- -- 77
2019-04-03 10:00:00 17 22 Oeste 39 Oeste 0 -- -- 85
2019-04-03 09:00:00 16 21 Oeste 34 Oeste 0 -- -- 92
2019-04-03 08:00:00 14.9 25 Oeste 39 Oeste 0 -- -- 94
2019-04-03 07:00:00 14.9 25 Oeste 38 Oeste 0 -- -- 94
2019-04-03 06:00:00 15 23 Oeste 36 Oeste 0 -- -- 94
2019-04-03 05:00:00 15.1 27 Oeste 39 Oeste 0 -- -- 94
2019-04-03 04:00:00 15 23 Oeste 35 Oeste 0 -- -- 94
2019-04-03 03:00:00 15.3 23 Oeste 34 Oeste 0 -- -- 93
2019-04-03 02:00:00 15.5 24 Oeste 39 Oeste 0 -- -- 89
2019-04-03 01:00:00 15.9 18 Noroeste 26 Oeste 0 -- -- 80
2019-04-03 00:00:00 15.5 14 Oeste 28 Oeste 0 -- -- 77
2019-04-02 23:00:00 16.3 12 Oeste 28 Noroeste 0 -- -- 73
2019-04-02 22:00:00 17.3 21 Noroeste 30 Noroeste 0 -- -- 50
2019-04-02 21:00:00 17.1 15 Noroeste 24 Noroeste 0 -- -- 57
2019-04-02 20:00:00 17.6 11 Noroeste 28 Norte 0 -- -- 76
2019-04-02 19:00:00 20.5 16 Noroeste 26 Noroeste 0 -- -- 65
2019-04-02 18:00:00 20.8 15 Nordeste 25 Nordeste 0 -- -- 59
2019-04-02 17:00:00 20.8 13 Nordeste 30 Este 0 -- -- 63
2019-04-02 16:00:00 21.6 16 Este 27 Este 0 -- -- 57
2019-04-02 15:00:00 20.7 13 Este 23 Este 0 -- -- 62
2019-04-02 14:00:00 20.2 13 Sudeste 30 Sudeste 0 -- -- 62
2019-04-02 13:00:00 19.4 14 Este 26 Sudeste 0 -- -- 71
2019-04-02 12:00:00 19 13 Este 29 Este 0 -- -- 71
2019-04-02 11:00:00 18.2 14 Este 26 Sudeste 0 -- -- 74
2019-04-02 10:00:00 17 18 Este 28 Sudeste 0 -- -- 81
2019-04-02 09:00:00 16.2 17 Este 24 Este 0 -- -- 86
2019-04-02 08:00:00 14.9 16 Este 28 Este 0 -- -- 90
2019-04-02 07:00:00 14.4 15 Este 23 Este 0 -- -- 91
2019-04-02 06:00:00 14.5 14 Este 24 Este 0 -- -- 91
2019-04-02 05:00:00 14.3 11 Este 18 Este 0 -- -- 91
2019-04-02 04:00:00 14.1 9 Este 18 Este 0 -- -- 91
2019-04-02 03:00:00 13.7 11 Este 15 Este 0 -- -- 92
2019-04-02 02:00:00 13.4 2 Norte 8 Nordeste 0 -- -- 93
2019-04-02 01:00:00 12.7 5 Noroeste 9 Noroeste 0 -- -- 92
2019-04-02 00:00:00 13.1 4 Noroeste 5 Noroeste 0 -- -- 90
2019-04-01 23:00:00 14.3 2 Norte 6 Este 0 -- -- 88
2019-04-01 22:00:00 15 6 Este 11 Este 0 -- -- 87
2019-04-01 21:00:00 15.6 7 Este 17 Este 0 -- -- 86
2019-04-01 20:00:00 16.1 10 Este 19 Este 0 -- -- 84
2019-04-01 19:00:00 17.3 13 Este 23 Sudeste 0 -- -- 77
2019-04-01 18:00:00 17.4 14 Este 23 Sudeste 0 -- -- 74
2019-04-01 17:00:00 16.5 8 Sudeste 19 Este 0 -- -- 78
2019-04-01 16:00:00 16.2 12 Sudeste 23 Este 0 -- -- 78
2019-04-01 15:00:00 16.8 16 Sudeste 25 Sudeste 0 -- -- 76
2019-04-01 14:00:00 18.2 9 Nordeste 21 Este 0 -- -- 72
2019-04-01 13:00:00 17.2 10 Nordeste 20 Este 0 -- -- 73
2019-04-01 12:00:00 17.6 9 Oeste 28 Nordeste 0 -- -- 71
2019-04-01 11:00:00 19 9 Nordeste 15 Este 0 -- -- 62
2019-04-01 10:00:00 17.2 6 Norte 17 Noroeste 0 -- -- 75
2019-04-01 09:00:00 15.4 14 Noroeste 18 Noroeste 0 -- -- 88
2019-04-01 08:00:00 13.5 12 Noroeste 17 Noroeste 0 -- -- 92
2019-04-01 07:00:00 13.5 8 Noroeste 17 Norte 0 -- -- 92
2019-04-01 06:00:00 13.1 8 Noroeste 13 Noroeste 0 -- -- 92
2019-04-01 05:00:00 13.6 8 Noroeste 13 Noroeste 0 -- -- 90
2019-04-01 04:00:00 14.5 6 Norte 12 Norte 0.6 -- -- 89
2019-04-01 03:00:00 15 5 Oeste 23 Oeste 0 -- -- 88
2019-04-01 02:00:00 15 15 Noroeste 25 Oeste 0 -- -- 88
2019-04-01 01:00:00 15 14 Oeste 22 Oeste 0 -- -- 87
2019-04-01 00:00:00 15.4 18 Noroeste 27 Noroeste 0 -- -- 86
2019-03-31 23:00:00 15.6 17 Noroeste 30 Noroeste 0 -- -- 85
2019-03-31 22:00:00 15.7 20 Oeste 34 Oeste 0 -- -- 84
2019-03-31 21:00:00 15.7 22 Oeste 33 Noroeste 0 -- -- 83
2019-03-31 20:00:00 16.1 26 Oeste 37 Oeste 0 -- -- 82
2019-03-31 19:00:00 16.8 23 Oeste 42 Oeste 0 -- -- 79
2019-03-31 18:00:00 18.7 24 Oeste 40 Oeste 0 -- -- 73
2019-03-31 17:00:00 18 26 Oeste 40 Oeste 0 -- -- 75
2019-03-31 16:00:00 19.2 24 Oeste 40 Oeste 0 -- -- 69
2019-03-31 15:00:00 19.2 17 Oeste 33 Oeste 0 -- -- 73
2019-03-31 14:00:00 17.5 24 Oeste 39 Oeste 0 -- -- 76
2019-03-31 13:00:00 18.4 17 Oeste 33 Noroeste 0 -- -- 73
2019-03-31 12:00:00 18 17 Oeste 34 Oeste 0 -- -- 74
2019-03-31 11:00:00 16.7 21 Oeste 38 Noroeste 0 -- -- 79
2019-03-31 10:00:00 17.1 27 Oeste 39 Oeste 0 -- -- 76
2019-03-31 09:00:00 16.1 25 Oeste 38 Oeste 0 -- -- 79
2019-03-31 08:00:00 15 27 Oeste 38 Noroeste 0 -- -- 82
2019-03-31 07:00:00 15 24 Noroeste 45 Noroeste 0 -- -- 83
2019-03-31 06:00:00 14.9 23 Noroeste 41 Noroeste 0 -- -- 84
2019-03-31 05:00:00 15.1 18 Oeste 39 Oeste 0 -- -- 82
2019-03-31 04:00:00 15.1 19 Noroeste 33 Noroeste 0 -- -- 81
2019-03-31 00:00:00 15.4 27 Noroeste 46 Oeste 0 -- -- 79
2019-03-30 23:00:00 15.4 26 Noroeste 42 Oeste 0 -- -- 79
2019-03-30 22:00:00 15.6 31 Noroeste 51 Noroeste 0 -- -- 81
2019-03-30 21:00:00 15.6 35 Noroeste 53 Oeste 0 -- -- 79
2019-03-30 20:00:00 15.5 32 Noroeste 50 Noroeste 0 -- -- 78
2019-03-30 19:00:00 15.8 28 Noroeste 45 Noroeste 0 -- -- 76
2019-03-30 18:00:00 16.6 22 Noroeste 35 Oeste 0 -- -- 73
2019-03-30 17:00:00 18 18 Oeste 33 Oeste 0 -- -- 69
2019-03-30 16:00:00 18.7 18 Oeste 34 Oeste 0 -- -- 66
2019-03-30 15:00:00 18.8 20 Oeste 37 Oeste 0 -- -- 66
2019-03-30 14:00:00 18.5 21 Oeste 34 Oeste 0 -- -- 67
2019-03-30 13:00:00 18.8 16 Oeste 30 Oeste 0 -- -- 65
2019-03-30 12:00:00 18.3 15 Oeste 29 Oeste 0 -- -- 64
2019-03-30 11:00:00 18.1 13 Noroeste 29 Oeste 0 -- -- 62
2019-03-30 10:00:00 17.7 12 Noroeste 23 Noroeste 0 -- -- 66
2019-03-30 09:00:00 16.2 13 Norte 25 Norte 0 -- -- 79
2019-03-30 08:00:00 14.7 13 Noroeste 19 Noroeste 0 -- -- 90
2019-03-30 07:00:00 11.3 11 Noroeste 16 Noroeste 0 -- -- 92
2019-03-30 06:00:00 11.3 10 Noroeste 15 Noroeste 0 -- -- 90
2019-03-30 05:00:00 11.7 10 Noroeste 14 Noroeste 0 -- -- 91
2019-03-30 04:00:00 11.5 9 Oeste 12 Noroeste 0 -- -- 90
2019-03-30 03:00:00 11.5 9 Noroeste 13 Noroeste 0 -- -- 90
2019-03-30 02:00:00 12.5 6 Noroeste 11 Noroeste 0 -- -- 89
2019-03-30 01:00:00 13.5 7 Noroeste 14 Norte 0 -- -- 86
2019-03-30 00:00:00 13.7 11 Noroeste 19 Noroeste 0 -- -- 87
2019-03-29 23:00:00 14.1 12 Noroeste 20 Norte 0 -- -- 87
2019-03-29 22:00:00 14.3 13 Noroeste 23 Noroeste 0 -- -- 85
2019-03-29 21:00:00 14.7 16 Noroeste 28 Norte 0 -- -- 82
2019-03-29 20:00:00 14.9 11 Noroeste 19 Norte 0 -- -- 79
2019-03-29 19:00:00 15.9 12 Noroeste 23 Norte 0 -- -- 73
2019-03-29 18:00:00 17.6 14 Norte 25 Nordeste 0 -- -- 71
2019-03-29 17:00:00 18.1 14 Nordeste 23 Nordeste 0 -- -- 66
2019-03-29 16:00:00 18.2 9 Nordeste 28 Nordeste 0 -- -- 67
2019-03-29 15:00:00 19.5 15 Este 29 Sudeste 0 -- -- 65
2019-03-29 14:00:00 19.5 17 Este 28 Este 0 -- -- 64
2019-03-29 13:00:00 19.5 16 Este 25 Sudeste 0 -- -- 63
2019-03-29 12:00:00 19.1 13 Sudeste 24 Sudeste 0 -- -- 63
2019-03-29 11:00:00 18.4 14 Sudeste 24 Este 0 -- -- 69
2019-03-29 10:00:00 17 12 Este 22 Este 0 -- -- 78
2019-03-29 09:00:00 15.9 9 Este 16 Este 0 -- -- 90
2019-03-29 08:00:00 13.2 3 Noroeste 10 Noroeste 0 -- -- 96
2019-03-29 07:00:00 10.6 6 Oeste 9 Noroeste 0 -- -- 94
2019-03-29 06:00:00 12.4 3 Noroeste 6 Nordeste 0 -- -- 94
2019-03-29 05:00:00 13.3 3 Nordeste 10 Este 0 -- -- 94
2019-03-29 04:00:00 13.2 5 Nordeste 9 Este 0 -- -- 95
2019-03-29 03:00:00 12 2 Noroeste 6 Oeste 0 -- -- 94
2019-03-29 02:00:00 12.2 4 Noroeste 11 Noroeste 0 -- -- 93
2019-03-29 01:00:00 11.6 4 Noroeste 9 Noroeste 0 -- -- 91
2019-03-29 00:00:00 12.3 3 Oeste 9 Noroeste 0 -- -- 89
2019-03-28 23:00:00 12.5 6 Norte 12 Noroeste 0 -- -- 89
2019-03-28 22:00:00 12.9 5 Noroeste 13 Noroeste 0 -- -- 87
2019-03-28 21:00:00 14.1 5 Norte 15 Norte 0 -- -- 83
2019-03-28 20:00:00 14.9 11 Norte 15 Norte 0 -- -- 78
2019-03-28 19:00:00 16.4 8 Norte 16 Oeste 0 -- -- 72
2019-03-28 18:00:00 18 8 Sudoeste 24 Sudoeste 0 -- -- 68
2019-03-28 17:00:00 19.2 15 Sudeste 30 Sudoeste 0 -- -- 65
2019-03-28 16:00:00 18.7 15 Sur 27 Sur 0 -- -- 68
2019-03-28 15:00:00 19.8 15 Sudeste 27 Sudeste 0 -- -- 65
2019-03-28 14:00:00 19.3 15 Sudeste 29 Sudeste 0 -- -- 64
2019-03-28 13:00:00 19.1 19 Este 39 Este 0 -- -- 66
2019-03-28 12:00:00 18.8 5 Norte 33 Nordeste 0 -- -- 67
2019-03-28 11:00:00 19.4 9 Este 23 Este 0 -- -- 69
2019-03-28 10:00:00 17.3 12 Este 22 Este 0 -- -- 75
2019-03-28 09:00:00 16.6 5 Noroeste 9 Norte 0 -- -- 86
2019-03-28 08:00:00 14.1 7 Norte 14 Noroeste 0 -- -- 95
2019-03-28 07:00:00 12 12 Noroeste 14 Noroeste 0 -- -- 95
2019-03-28 06:00:00 13 6 Noroeste 16 Noroeste 0 -- -- 94
2019-03-28 05:00:00 13.4 12 Noroeste 19 Noroeste 0 -- -- 94
2019-03-28 04:00:00 13.5 9 Noroeste 18 Noroeste 0 -- -- 94
2019-03-28 03:00:00 12.9 13 Noroeste 18 Noroeste 0 -- -- 95
2019-03-28 02:00:00 12.8 6 Noroeste 8 Noroeste 0 -- -- 92
2019-03-28 01:00:00 13.6 6 Noroeste 15 Noroeste 0 -- -- 92
2019-03-28 00:00:00 14.1 10 Noroeste 14 Noroeste 0 -- -- 91
2019-03-27 23:00:00 14.3 8 Noroeste 16 Noroeste 0 -- -- 90
2019-03-27 22:00:00 14.9 11 Noroeste 17 Noroeste 0 -- -- 89
2019-03-27 21:00:00 15 10 Noroeste 14 Noroeste 0 -- -- 85
2019-03-27 20:00:00 15.7 8 Noroeste 19 Noroeste 0 -- -- 83
2019-03-27 19:00:00 16.6 12 Noroeste 20 Noroeste 0 -- -- 81
2019-03-27 18:00:00 17.7 12 Oeste 25 Oeste 0 -- -- 80
2019-03-27 17:00:00 17.1 8 Este 16 Sudeste 0.2 -- -- 86
2019-03-27 16:00:00 17.7 13 Sudeste 19 Este 0 -- -- 76
2019-03-27 15:00:00 18 11 Este 19 Este 0 -- -- 72
2019-03-27 14:00:00 18.7 6 Este 22 Este 0 -- -- 69
2019-03-27 13:00:00 19.2 13 Este 24 Este 0 -- -- 64
2019-03-27 12:00:00 19.2 9 Oeste 21 Oeste 0 -- -- 66
2019-03-27 11:00:00 18.6 4 Este 15 Oeste 0 -- -- 70
2019-03-27 10:00:00 18 9 Oeste 19 Oeste 0 -- -- 71
2019-03-27 09:00:00 16.8 12 Oeste 21 Oeste 0 -- -- 86
2019-03-27 08:00:00 15.1 15 Oeste 19 Oeste 0 -- -- 94
2019-03-27 07:00:00 13.3 12 Oeste 17 Oeste 0 -- -- 94
2019-03-27 06:00:00 13 8 Oeste 13 Oeste 0 -- -- 93
2019-03-27 05:00:00 13.6 9 Oeste 17 Oeste 0 -- -- 93
2019-03-27 04:00:00 13.6 13 Oeste 17 Oeste 0 -- -- 92
2019-03-27 03:00:00 13.3 12 Oeste 18 Oeste 0 -- -- 92
2019-03-27 02:00:00 13.8 12 Oeste 17 Noroeste 0 -- -- 90
2019-03-27 01:00:00 13.9 13 Noroeste 17 Oeste 0 -- -- 90
2019-03-27 00:00:00 14 10 Oeste 14 Noroeste 0 -- -- 90
2019-03-26 23:00:00 14.6 4 Noroeste 19 Noroeste 0 -- -- 88
2019-03-26 22:00:00 14.7 10 Noroeste 18 Noroeste 0 -- -- 88
2019-03-26 21:00:00 15.1 15 Noroeste 29 Noroeste 0 -- -- 85
2019-03-26 20:00:00 15.2 10 Oeste 20 Oeste 0 -- -- 83
2019-03-26 19:00:00 15.7 14 Oeste 23 Oeste 0 -- -- 79
2019-03-26 18:00:00 16.9 16 Oeste 25 Oeste 0 -- -- 75
2019-03-26 17:00:00 18.2 13 Oeste 23 Noroeste 0 -- -- 72
2019-03-26 16:00:00 18.3 6 Sudoeste 17 Este 0 -- -- 71
2019-03-26 15:00:00 17.3 8 Oeste 31 Sudeste 0 -- -- 74
2019-03-26 14:00:00 18.3 20 Este 31 Este 0 -- -- 65
2019-03-26 13:00:00 18.2 17 Este 24 Este 0 -- -- 78
2019-03-26 12:00:00 17.6 19 Sudeste 33 Sudeste 0 -- -- 73
2019-03-26 11:00:00 19 12 Sudeste 26 Sudeste 0 -- -- 66
2019-03-26 10:00:00 17.7 12 Sudeste 20 Sudeste 0 -- -- 72
2019-03-26 09:00:00 16.9 8 Sudeste 16 Este 0 -- -- 76
2019-03-26 08:00:00 15 5 Sudeste 7 Sudeste 0 -- -- 85
2019-03-26 07:00:00 13.2 2 Nordeste 6 Norte 0 -- -- 86
2019-03-26 06:00:00 12.6 4 Oeste 9 Oeste 0 -- -- 84
2019-03-26 05:00:00 12.4 3 Norte 8 Noroeste 0 -- -- 76
2019-03-26 04:00:00 13 4 Noroeste 7 Noroeste 0 -- -- 73
2019-03-26 03:00:00 13.9 3 Norte 20 Oeste 0 -- -- 70
2019-03-26 02:00:00 15.1 17 Oeste 30 Sudoeste 0 -- -- 65
2019-03-26 01:00:00 16.1 14 Sur 27 Sudoeste 0 -- -- 60
2019-03-26 00:00:00 16.2 10 Sudoeste 17 Sur 0 -- -- 64
2019-03-25 23:00:00 15.2 7 Oeste 23 Oeste 0 -- -- 81
2019-03-25 22:00:00 15.9 17 Oeste 30 Sur 0 -- -- 76
2019-03-25 21:00:00 15.9 14 Sur 29 Sur 0 -- -- 78
2019-03-25 20:00:00 15.2 3 Oeste 12 Oeste 0 -- -- 81
2019-03-25 19:00:00 15.8 10 Oeste 20 Sudoeste 0 -- -- 78
2019-03-25 18:00:00 17 13 Oeste 31 Oeste 0 -- -- 67
2019-03-25 17:00:00 17.8 19 Oeste 32 Oeste 0 -- -- 73
2019-03-25 16:00:00 17.4 22 Oeste 33 Oeste 0 -- -- 76
2019-03-25 15:00:00 17.2 18 Oeste 30 Oeste 0 -- -- 77
2019-03-25 14:00:00 18.6 21 Noroeste 31 Oeste 0 -- -- 71
2019-03-25 13:00:00 18 20 Oeste 36 Oeste 0 -- -- 77
2019-03-25 12:00:00 17.6 19 Oeste 32 Oeste 0 -- -- 80
2019-03-25 11:00:00 17.6 22 Oeste 32 Oeste 0 -- -- 81
2019-03-25 10:00:00 17.8 23 Oeste 33 Oeste 0 -- -- 82
2019-03-25 09:00:00 16.2 21 Oeste 35 Oeste 0 -- -- 90
2019-03-25 08:00:00 15.4 24 Oeste 36 Oeste 0 -- -- 91
2019-03-25 07:00:00 14.7 25 Oeste 35 Oeste 0 -- -- 92
2019-03-25 06:00:00 14.9 20 Oeste 26 Oeste 0 -- -- 87
2019-03-25 05:00:00 14.8 10 Noroeste 19 Oeste 0 -- -- 82
2019-03-25 04:00:00 16.3 3 Norte 9 Nordeste 0 -- -- 62
2019-03-25 03:00:00 15.5 3 Norte 8 Noroeste 0 -- -- 69
2019-03-25 02:00:00 13.9 4 Noroeste 11 Noroeste 0 -- -- 81
2019-03-25 01:00:00 13.6 6 Noroeste 9 Noroeste 0 -- -- 85
2019-03-25 00:00:00 14.2 5 Noroeste 10 Noroeste 0 -- -- 86
2019-03-24 23:00:00 14.3 6 Noroeste 13 Norte 0 -- -- 89
2019-03-24 22:00:00 14.9 5 Noroeste 17 Norte 0 -- -- 93
2019-03-24 21:00:00 15.3 10 Norte 19 Norte 0 -- -- 92
2019-03-24 20:00:00 15.7 13 Norte 20 Norte 0 -- -- 89
2019-03-24 19:00:00 16.5 11 Norte 19 Nordeste 0 -- -- 85
2019-03-24 18:00:00 18.1 10 Nordeste 18 Nordeste 0 -- -- 76
2019-03-24 17:00:00 19.6 12 Sudeste 23 Este 0 -- -- 69
2019-03-24 16:00:00 19.7 16 Este 31 Este 0 -- -- 69
2019-03-24 15:00:00 20.4 17 Este 34 Sudeste 0 -- -- 64
2019-03-24 14:00:00 20.2 18 Este 35 Este 0 -- -- 65
2019-03-24 13:00:00 20.1 17 Este 32 Este 0 -- -- 65
2019-03-24 12:00:00 18.5 12 Nordeste 25 Nordeste 0 -- -- 68
2019-03-24 11:00:00 18.5 17 Nordeste 25 Nordeste 0 -- -- 70
2019-03-24 10:00:00 17.1 15 Nordeste 24 Nordeste 0 -- -- 74
2019-03-24 09:00:00 16.2 14 Nordeste 21 Norte 0 -- -- 79
2019-03-24 08:00:00 14.1 12 Noroeste 21 Noroeste 0 -- -- 88
2019-03-24 07:00:00 12.2 13 Noroeste 22 Noroeste 0 -- -- 87
2019-03-24 06:00:00 12.9 12 Noroeste 28 Noroeste 0 -- -- 86
2019-03-24 05:00:00 12.6 15 Noroeste 23 Noroeste 0 -- -- 89
2019-03-24 04:00:00 12.3 8 Noroeste 13 Noroeste 0 -- -- 85
2019-03-24 03:00:00 13.3 6 Norte 15 Norte 0 -- -- 84
2019-03-24 02:00:00 13.7 9 Norte 24 Norte 0 -- -- 84
2019-03-24 01:00:00 13.9 13 Norte 23 Norte 0 -- -- 84
2019-03-24 00:00:00 13.7 8 Norte 21 Norte 0 -- -- 85
2019-03-23 23:00:00 14.1 7 Norte 21 Norte 0 -- -- 83
2019-03-23 22:00:00 14.3 14 Norte 26 Norte 0 -- -- 83
2019-03-23 21:00:00 14.3 10 Norte 29 Noroeste 0 -- -- 82
2019-03-23 20:00:00 14.6 26 Noroeste 45 Noroeste 0 -- -- 80
2019-03-23 19:00:00 15 29 Noroeste 41 Noroeste 0 -- -- 76
2019-03-23 18:00:00 16.1 20 Noroeste 44 Noroeste 0 -- -- 73
2019-03-23 17:00:00 17.2 26 Noroeste 45 Noroeste 0 -- -- 68
2019-03-23 16:00:00 17.9 25 Norte 40 Noroeste 0 -- -- 65
2019-03-23 15:00:00 18.2 19 Norte 30 Norte 0 -- -- 66
2019-03-23 14:00:00 17.8 21 Nordeste 36 Norte 0 -- -- 67
2019-03-23 13:00:00 18.3 25 Norte 40 Norte 0 -- -- 66
2019-03-23 12:00:00 17.9 21 Norte 39 Norte 0 -- -- 69
2019-03-23 11:00:00 17.3 24 Norte 39 Noroeste 0 -- -- 70
2019-03-23 10:00:00 16.4 26 Norte 47 Norte 0 -- -- 77
2019-03-23 09:00:00 15.3 27 Noroeste 46 Noroeste 0 -- -- 82
2019-03-23 08:00:00 14.3 24 Norte 35 Norte 0 -- -- 89
2019-03-23 07:00:00 13.7 16 Noroeste 28 Norte 0 -- -- 90
2019-03-23 06:00:00 13.9 14 Norte 24 Norte 0 -- -- 90
2019-03-23 05:00:00 14.1 14 Norte 30 Norte 0 -- -- 90
2019-03-23 04:00:00 14.1 16 Nordeste 29 Este 0 -- -- 90
2019-03-23 03:00:00 14.1 15 Nordeste 26 Norte 0 -- -- 90
2019-03-23 02:00:00 14.3 13 Nordeste 27 Norte 0 -- -- 92
2019-03-23 01:00:00 14.3 13 Nordeste 24 Nordeste 0 -- -- 93
2019-03-23 00:00:00 14.5 14 Nordeste 27 Nordeste 0 -- -- 92
2019-03-22 23:00:00 14.6 15 Nordeste 31 Nordeste 0 -- -- 92
2019-03-22 22:00:00 14.6 17 Nordeste 31 Nordeste 0 -- -- 91
2019-03-22 21:00:00 14.7 17 Nordeste 34 Nordeste 0 -- -- 91
2019-03-22 20:00:00 14.7 18 Nordeste 38 Norte 0 -- -- 90
2019-03-22 19:00:00 15 22 Norte 38 Nordeste 0 -- -- 86
2019-03-22 18:00:00 15.9 26 Norte 41 Norte 0 -- -- 83
2019-03-22 17:00:00 16.5 27 Norte 39 Norte 0 -- -- 80
2019-03-22 16:00:00 17 22 Norte 35 Nordeste 0 -- -- 79
2019-03-22 15:00:00 16.1 17 Nordeste 30 Nordeste 0 -- -- 80
2019-03-22 14:00:00 16.2 17 Nordeste 32 Nordeste 0 -- -- 77
2019-03-22 13:00:00 17.4 21 Nordeste 35 Nordeste 0 -- -- 72
2019-03-22 12:00:00 17.2 19 Nordeste 32 Nordeste 0 -- -- 79
2019-03-22 11:00:00 16.2 22 Nordeste 35 Nordeste 0 -- -- 79
2019-03-22 10:00:00 15.2 24 Nordeste 35 Nordeste 0 -- -- 81
2019-03-22 09:00:00 14.8 19 Nordeste 33 Nordeste 0 -- -- 81
2019-03-22 08:00:00 14.4 19 Nordeste 32 Nordeste 0 -- -- 83
2019-03-22 07:00:00 13.2 15 Nordeste 30 Nordeste 0 -- -- 82
2019-03-22 06:00:00 13 14 Norte 30 Norte 0 -- -- 80
2019-03-22 05:00:00 13.2 13 Norte 27 Norte 0 -- -- 81
2019-03-22 04:00:00 13.2 14 Norte 28 Norte 0 -- -- 81
2019-03-22 03:00:00 13.1 14 Norte 25 Nordeste 0 -- -- 82
2019-03-22 02:00:00 13.1 12 Nordeste 21 Norte 0 -- -- 81
2019-03-22 01:00:00 13.3 10 Nordeste 25 Nordeste 0 -- -- 78
2019-03-22 00:00:00 13.7 14 Nordeste 36 Nordeste 0 -- -- 77
2019-03-21 23:00:00 13.8 19 Nordeste 33 Nordeste 0 -- -- 77
2019-03-21 22:00:00 14 18 Nordeste 30 Nordeste 0 -- -- 77
2019-03-21 21:00:00 14.2 18 Nordeste 36 Nordeste 0 -- -- 77
2019-03-21 20:00:00 14.4 16 Norte 35 Nordeste 0 -- -- 76
2019-03-21 19:00:00 14.8 22 Nordeste 35 Nordeste 0 -- -- 75
2019-03-21 18:00:00 15.8 22 Nordeste 41 Nordeste 0 -- -- 70
2019-03-21 17:00:00 16.8 25 Nordeste 40 Nordeste 0 -- -- 67
2019-03-21 16:00:00 17.3 23 Nordeste 41 Nordeste 0 -- -- 69
2019-03-21 15:00:00 18.1 27 Nordeste 41 Nordeste 0 -- -- 57
2019-03-21 14:00:00 18.1 26 Nordeste 44 Norte 0 -- -- 59
2019-03-21 13:00:00 18.9 24 Nordeste 42 Nordeste 0 -- -- 61
2019-03-21 12:00:00 18.1 26 Nordeste 39 Nordeste 0 -- -- 68
2019-03-21 11:00:00 17.7 24 Nordeste 39 Nordeste 0 -- -- 70
2019-03-21 10:00:00 17.2 21 Nordeste 38 Nordeste 0 -- -- 77
2019-03-21 09:00:00 16 20 Nordeste 42 Nordeste 0 -- -- 81
2019-03-21 08:00:00 14.5 17 Nordeste 31 Norte 0 -- -- 89
2019-03-21 07:00:00 13.7 15 Nordeste 28 Nordeste 0 -- -- 90
2019-03-21 06:00:00 13.6 11 Nordeste 24 Nordeste 0 -- -- 90
2019-03-21 05:00:00 13.8 15 Nordeste 24 Nordeste 0 -- -- 89
2019-03-21 04:00:00 13.5 10 Nordeste 22 Nordeste 0 -- -- 90
2019-03-21 03:00:00 13.6 8 Nordeste 23 Nordeste 0 -- -- 91
2019-03-21 02:00:00 14 10 Nordeste 18 Norte 0 -- -- 91
2019-03-21 01:00:00 14.4 8 Nordeste 22 Norte 0 -- -- 92
2019-03-21 00:00:00 14.7 11 Nordeste 20 Nordeste 0 -- -- 92